sensor_id;sensor_type;location;lat;lon;timestamp;P1;durP1;ratioP1;P2;durP2;ratioP2
23474;SDS011;11910;52.086;21.066;2024-03-25T00:01:19;22.63;;;16.00;;
23474;SDS011;11910;52.086;21.066;2024-03-25T00:03:45;22.45;;;17.05;;
23474;SDS011;11910;52.086;21.066;2024-03-25T00:06:11;23.23;;;16.63;;
23474;SDS011;11910;52.086;21.066;2024-03-25T00:08:36;21.95;;;16.20;;
23474;SDS011;11910;52.086;21.066;2024-03-25T00:11:02;24.33;;;16.73;;
23474;SDS011;11910;52.086;21.066;2024-03-25T00:13:28;23.05;;;16.98;;
23474;SDS011;11910;52.086;21.066;2024-03-25T00:15:54;22.48;;;16.73;;
23474;SDS011;11910;52.086;21.066;2024-03-25T00:18:19;24.38;;;17.42;;
23474;SDS011;11910;52.086;21.066;2024-03-25T00:20:45;22.65;;;17.38;;
23474;SDS011;11910;52.086;21.066;2024-03-25T00:23:11;25.50;;;18.15;;
23474;SDS011;11910;52.086;21.066;2024-03-25T00:25:36;23.35;;;17.33;;
23474;SDS011;11910;52.086;21.066;2024-03-25T00:28:02;23.73;;;17.83;;
23474;SDS011;11910;52.086;21.066;2024-03-25T00:30:29;25.92;;;18.88;;
23474;SDS011;11910;52.086;21.066;2024-03-25T00:32:55;25.40;;;18.25;;
23474;SDS011;11910;52.086;21.066;2024-03-25T00:35:21;25.35;;;18.73;;
23474;SDS011;11910;52.086;21.066;2024-03-25T00:37:46;25.67;;;19.50;;
23474;SDS011;11910;52.086;21.066;2024-03-25T00:40:12;26.60;;;19.25;;
23474;SDS011;11910;52.086;21.066;2024-03-25T00:42:38;25.85;;;19.17;;
23474;SDS011;11910;52.086;21.066;2024-03-25T00:45:04;27.67;;;18.83;;
23474;SDS011;11910;52.086;21.066;2024-03-25T00:47:32;25.45;;;19.05;;
23474;SDS011;11910;52.086;21.066;2024-03-25T00:49:58;25.63;;;19.60;;
23474;SDS011;11910;52.086;21.066;2024-03-25T00:52:24;26.02;;;18.65;;
23474;SDS011;11910;52.086;21.066;2024-03-25T00:54:49;27.02;;;20.70;;
23474;SDS011;11910;52.086;21.066;2024-03-25T00:57:15;25.95;;;19.70;;
23474;SDS011;11910;52.086;21.066;2024-03-25T00:59:41;27.30;;;19.90;;
23474;SDS011;11910;52.086;21.066;2024-03-25T01:02:07;26.05;;;19.63;;
23474;SDS011;11910;52.086;21.066;2024-03-25T01:04:33;29.58;;;19.60;;
23474;SDS011;11910;52.086;21.066;2024-03-25T01:06:59;26.30;;;19.08;;
23474;SDS011;11910;52.086;21.066;2024-03-25T01:09:25;28.63;;;21.00;;
23474;SDS011;11910;52.086;21.066;2024-03-25T01:11:50;27.45;;;20.25;;
23474;SDS011;11910;52.086;21.066;2024-03-25T01:14:16;26.42;;;19.73;;
23474;SDS011;11910;52.086;21.066;2024-03-25T01:16:42;25.70;;;19.50;;
23474;SDS011;11910;52.086;21.066;2024-03-25T01:19:08;27.25;;;19.67;;
23474;SDS011;11910;52.086;21.066;2024-03-25T01:21:34;27.85;;;19.77;;
23474;SDS011;11910;52.086;21.066;2024-03-25T01:24:00;27.85;;;20.42;;
23474;SDS011;11910;52.086;21.066;2024-03-25T01:26:26;28.90;;;21.00;;
23474;SDS011;11910;52.086;21.066;2024-03-25T01:28:53;28.20;;;19.58;;
23474;SDS011;11910;52.086;21.066;2024-03-25T01:31:19;26.63;;;20.38;;
23474;SDS011;11910;52.086;21.066;2024-03-25T01:33:45;26.35;;;19.20;;
23474;SDS011;11910;52.086;21.066;2024-03-25T01:36:10;27.52;;;19.83;;
23474;SDS011;11910;52.086;21.066;2024-03-25T01:38:41;25.08;;;19.02;;
23474;SDS011;11910;52.086;21.066;2024-03-25T01:41:08;24.85;;;18.70;;
23474;SDS011;11910;52.086;21.066;2024-03-25T01:43:37;25.83;;;19.05;;
23474;SDS011;11910;52.086;21.066;2024-03-25T01:46:04;25.02;;;18.98;;
23474;SDS011;11910;52.086;21.066;2024-03-25T01:48:30;25.33;;;18.88;;
23474;SDS011;11910;52.086;21.066;2024-03-25T01:50:57;24.60;;;19.17;;
23474;SDS011;11910;52.086;21.066;2024-03-25T01:53:24;25.70;;;18.92;;
23474;SDS011;11910;52.086;21.066;2024-03-25T01:55:53;26.73;;;18.85;;
23474;SDS011;11910;52.086;21.066;2024-03-25T01:58:21;28.83;;;19.17;;
23474;SDS011;11910;52.086;21.066;2024-03-25T02:00:48;26.25;;;18.90;;
23474;SDS011;11910;52.086;21.066;2024-03-25T02:03:15;25.60;;;18.73;;
23474;SDS011;11910;52.086;21.066;2024-03-25T02:05:41;27.00;;;19.38;;
23474;SDS011;11910;52.086;21.066;2024-03-25T02:08:07;27.90;;;19.27;;
23474;SDS011;11910;52.086;21.066;2024-03-25T02:10:35;28.60;;;19.20;;
23474;SDS011;11910;52.086;21.066;2024-03-25T02:13:02;25.02;;;19.00;;
23474;SDS011;11910;52.086;21.066;2024-03-25T02:15:28;25.65;;;19.02;;
23474;SDS011;11910;52.086;21.066;2024-03-25T02:17:54;26.27;;;19.00;;
23474;SDS011;11910;52.086;21.066;2024-03-25T02:20:20;29.25;;;19.75;;
23474;SDS011;11910;52.086;21.066;2024-03-25T02:22:46;28.10;;;19.30;;
23474;SDS011;11910;52.086;21.066;2024-03-25T02:25:11;27.02;;;18.10;;
23474;SDS011;11910;52.086;21.066;2024-03-25T02:27:41;25.00;;;18.77;;
23474;SDS011;11910;52.086;21.066;2024-03-25T02:30:07;27.23;;;19.17;;
23474;SDS011;11910;52.086;21.066;2024-03-25T02:32:37;23.60;;;18.60;;
23474;SDS011;11910;52.086;21.066;2024-03-25T02:35:03;29.75;;;19.10;;
23474;SDS011;11910;52.086;21.066;2024-03-25T02:37:32;26.90;;;18.95;;
23474;SDS011;11910;52.086;21.066;2024-03-25T02:39:59;26.20;;;19.20;;
23474;SDS011;11910;52.086;21.066;2024-03-25T02:42:26;28.25;;;20.00;;
23474;SDS011;11910;52.086;21.066;2024-03-25T02:44:53;27.08;;;19.13;;
23474;SDS011;11910;52.086;21.066;2024-03-25T02:47:20;25.52;;;19.17;;
23474;SDS011;11910;52.086;21.066;2024-03-25T02:49:46;25.92;;;19.17;;
23474;SDS011;11910;52.086;21.066;2024-03-25T02:52:12;27.88;;;19.17;;
23474;SDS011;11910;52.086;21.066;2024-03-25T02:54:37;26.70;;;19.67;;
23474;SDS011;11910;52.086;21.066;2024-03-25T02:57:03;28.33;;;18.77;;
23474;SDS011;11910;52.086;21.066;2024-03-25T02:59:29;26.73;;;18.80;;
23474;SDS011;11910;52.086;21.066;2024-03-25T03:01:54;26.42;;;19.00;;
23474;SDS011;11910;52.086;21.066;2024-03-25T03:04:20;26.63;;;19.38;;
23474;SDS011;11910;52.086;21.066;2024-03-25T03:06:46;25.55;;;19.40;;
23474;SDS011;11910;52.086;21.066;2024-03-25T03:09:11;25.23;;;18.85;;
23474;SDS011;11910;52.086;21.066;2024-03-25T03:11:37;26.42;;;19.33;;
23474;SDS011;11910;52.086;21.066;2024-03-25T03:14:03;26.25;;;18.77;;
23474;SDS011;11910;52.086;21.066;2024-03-25T03:16:29;27.50;;;19.15;;
23474;SDS011;11910;52.086;21.066;2024-03-25T03:18:55;27.17;;;19.02;;
23474;SDS011;11910;52.086;21.066;2024-03-25T03:21:20;26.00;;;18.80;;
23474;SDS011;11910;52.086;21.066;2024-03-25T03:23:46;26.20;;;19.33;;
23474;SDS011;11910;52.086;21.066;2024-03-25T03:26:12;25.05;;;19.00;;
23474;SDS011;11910;52.086;21.066;2024-03-25T03:28:39;24.45;;;17.90;;
23474;SDS011;11910;52.086;21.066;2024-03-25T03:31:05;24.88;;;17.63;;
23474;SDS011;11910;52.086;21.066;2024-03-25T03:33:31;26.15;;;18.70;;
23474;SDS011;11910;52.086;21.066;2024-03-25T03:35:56;27.52;;;19.33;;
23474;SDS011;11910;52.086;21.066;2024-03-25T03:38:22;25.98;;;18.98;;
23474;SDS011;11910;52.086;21.066;2024-03-25T03:43:23;25.60;;;18.73;;
23474;SDS011;11910;52.086;21.066;2024-03-25T03:45:49;25.42;;;18.38;;
23474;SDS011;11910;52.086;21.066;2024-03-25T03:48:14;27.52;;;18.73;;
23474;SDS011;11910;52.086;21.066;2024-03-25T03:50:40;25.55;;;18.63;;
23474;SDS011;11910;52.086;21.066;2024-03-25T03:53:06;26.48;;;18.17;;
23474;SDS011;11910;52.086;21.066;2024-03-25T03:55:32;21.90;;;16.80;;
23474;SDS011;11910;52.086;21.066;2024-03-25T03:57:58;25.80;;;17.77;;
23474;SDS011;11910;52.086;21.066;2024-03-25T04:00:23;24.83;;;18.15;;
23474;SDS011;11910;52.086;21.066;2024-03-25T04:02:49;25.58;;;18.15;;
23474;SDS011;11910;52.086;21.066;2024-03-25T04:05:15;24.90;;;18.00;;
23474;SDS011;11910;52.086;21.066;2024-03-25T04:07:40;25.33;;;18.13;;
23474;SDS011;11910;52.086;21.066;2024-03-25T04:10:06;24.10;;;18.00;;
23474;SDS011;11910;52.086;21.066;2024-03-25T04:12:32;24.02;;;17.15;;
23474;SDS011;11910;52.086;21.066;2024-03-25T04:14:58;24.92;;;17.77;;
23474;SDS011;11910;52.086;21.066;2024-03-25T04:17:23;22.98;;;16.98;;
23474;SDS011;11910;52.086;21.066;2024-03-25T04:19:49;24.60;;;17.17;;
23474;SDS011;11910;52.086;21.066;2024-03-25T04:22:15;25.13;;;17.27;;
23474;SDS011;11910;52.086;21.066;2024-03-25T04:24:42;24.23;;;16.73;;
23474;SDS011;11910;52.086;21.066;2024-03-25T04:27:08;23.08;;;16.63;;
23474;SDS011;11910;52.086;21.066;2024-03-25T04:29:34;24.98;;;17.48;;
23474;SDS011;11910;52.086;21.066;2024-03-25T04:32:00;22.45;;;16.75;;
23474;SDS011;11910;52.086;21.066;2024-03-25T04:34:27;25.60;;;17.40;;
23474;SDS011;11910;52.086;21.066;2024-03-25T04:36:53;25.20;;;17.27;;
23474;SDS011;11910;52.086;21.066;2024-03-25T04:39:19;23.40;;;17.08;;
23474;SDS011;11910;52.086;21.066;2024-03-25T04:41:44;23.85;;;17.13;;
23474;SDS011;11910;52.086;21.066;2024-03-25T04:44:11;22.85;;;16.33;;
23474;SDS011;11910;52.086;21.066;2024-03-25T04:46:37;23.33;;;16.08;;
23474;SDS011;11910;52.086;21.066;2024-03-25T04:49:02;22.60;;;16.10;;
23474;SDS011;11910;52.086;21.066;2024-03-25T04:51:28;22.70;;;16.83;;
23474;SDS011;11910;52.086;21.066;2024-03-25T04:53:54;25.02;;;16.88;;
23474;SDS011;11910;52.086;21.066;2024-03-25T04:56:19;26.02;;;16.75;;
23474;SDS011;11910;52.086;21.066;2024-03-25T04:58:45;24.13;;;17.15;;
23474;SDS011;11910;52.086;21.066;2024-03-25T05:01:10;22.23;;;16.00;;
23474;SDS011;11910;52.086;21.066;2024-03-25T05:03:36;22.25;;;16.35;;
23474;SDS011;11910;52.086;21.066;2024-03-25T05:06:02;23.90;;;16.90;;
23474;SDS011;11910;52.086;21.066;2024-03-25T05:08:30;22.20;;;16.15;;
23474;SDS011;11910;52.086;21.066;2024-03-25T05:10:56;24.98;;;16.60;;
23474;SDS011;11910;52.086;21.066;2024-03-25T05:13:21;24.38;;;16.77;;
23474;SDS011;11910;52.086;21.066;2024-03-25T05:15:50;25.83;;;16.70;;
23474;SDS011;11910;52.086;21.066;2024-03-25T05:18:17;22.98;;;16.08;;
23474;SDS011;11910;52.086;21.066;2024-03-25T05:20:43;24.40;;;16.13;;
23474;SDS011;11910;52.086;21.066;2024-03-25T05:23:09;22.73;;;15.57;;
23474;SDS011;11910;52.086;21.066;2024-03-25T05:25:35;21.60;;;16.30;;
23474;SDS011;11910;52.086;21.066;2024-03-25T05:28:01;22.67;;;16.75;;
23474;SDS011;11910;52.086;21.066;2024-03-25T05:30:27;22.58;;;16.17;;
23474;SDS011;11910;52.086;21.066;2024-03-25T05:32:53;23.73;;;16.20;;
23474;SDS011;11910;52.086;21.066;2024-03-25T05:35:18;22.48;;;16.00;;
23474;SDS011;11910;52.086;21.066;2024-03-25T05:37:45;21.42;;;15.88;;
23474;SDS011;11910;52.086;21.066;2024-03-25T05:40:11;22.50;;;16.52;;
23474;SDS011;11910;52.086;21.066;2024-03-25T05:42:37;22.13;;;15.95;;
23474;SDS011;11910;52.086;21.066;2024-03-25T05:45:03;21.58;;;15.38;;
23474;SDS011;11910;52.086;21.066;2024-03-25T05:47:29;22.52;;;16.33;;
23474;SDS011;11910;52.086;21.066;2024-03-25T05:49:55;22.73;;;15.73;;
23474;SDS011;11910;52.086;21.066;2024-03-25T05:52:20;20.88;;;16.13;;
23474;SDS011;11910;52.086;21.066;2024-03-25T05:54:46;24.23;;;16.13;;
23474;SDS011;11910;52.086;21.066;2024-03-25T05:57:12;26.33;;;17.63;;
23474;SDS011;11910;52.086;21.066;2024-03-25T05:59:38;26.70;;;18.73;;
23474;SDS011;11910;52.086;21.066;2024-03-25T06:02:03;25.90;;;17.27;;
23474;SDS011;11910;52.086;21.066;2024-03-25T06:04:29;24.45;;;16.83;;
23474;SDS011;11910;52.086;21.066;2024-03-25T06:06:55;23.38;;;16.65;;
23474;SDS011;11910;52.086;21.066;2024-03-25T06:09:21;22.08;;;15.80;;
23474;SDS011;11910;52.086;21.066;2024-03-25T06:11:47;22.05;;;15.00;;
23474;SDS011;11910;52.086;21.066;2024-03-25T06:14:12;21.10;;;14.82;;
23474;SDS011;11910;52.086;21.066;2024-03-25T06:16:38;23.73;;;14.80;;
23474;SDS011;11910;52.086;21.066;2024-03-25T06:19:04;22.10;;;14.60;;
23474;SDS011;11910;52.086;21.066;2024-03-25T06:21:29;21.83;;;14.45;;
23474;SDS011;11910;52.086;21.066;2024-03-25T06:23:55;22.05;;;14.35;;
23474;SDS011;11910;52.086;21.066;2024-03-25T06:26:21;19.13;;;13.15;;
23474;SDS011;11910;52.086;21.066;2024-03-25T06:28:47;20.80;;;13.73;;
23474;SDS011;11910;52.086;21.066;2024-03-25T06:31:13;18.90;;;13.10;;
23474;SDS011;11910;52.086;21.066;2024-03-25T06:33:57;17.00;;;12.00;;
23474;SDS011;11910;52.086;21.066;2024-03-25T06:36:41;17.48;;;11.98;;
23474;SDS011;11910;52.086;21.066;2024-03-25T06:39:07;19.27;;;12.95;;
23474;SDS011;11910;52.086;21.066;2024-03-25T06:41:32;20.55;;;12.63;;
23474;SDS011;11910;52.086;21.066;2024-03-25T06:43:58;19.38;;;12.23;;
23474;SDS011;11910;52.086;21.066;2024-03-25T06:46:24;18.50;;;11.88;;
23474;SDS011;11910;52.086;21.066;2024-03-25T06:48:49;15.65;;;11.02;;
23474;SDS011;11910;52.086;21.066;2024-03-25T06:51:17;18.42;;;11.48;;
23474;SDS011;11910;52.086;21.066;2024-03-25T06:53:43;15.82;;;11.15;;
23474;SDS011;11910;52.086;21.066;2024-03-25T06:56:09;14.35;;;10.25;;
23474;SDS011;11910;52.086;21.066;2024-03-25T06:58:34;17.73;;;10.75;;
23474;SDS011;11910;52.086;21.066;2024-03-25T07:01:04;15.85;;;10.77;;
23474;SDS011;11910;52.086;21.066;2024-03-25T07:03:34;15.77;;;10.20;;
23474;SDS011;11910;52.086;21.066;2024-03-25T07:06:00;13.98;;;9.90;;
23474;SDS011;11910;52.086;21.066;2024-03-25T07:08:27;13.65;;;8.90;;
23474;SDS011;11910;52.086;21.066;2024-03-25T07:10:53;13.07;;;8.73;;
23474;SDS011;11910;52.086;21.066;2024-03-25T07:13:19;14.90;;;9.20;;
23474;SDS011;11910;52.086;21.066;2024-03-25T07:15:45;14.43;;;9.02;;
23474;SDS011;11910;52.086;21.066;2024-03-25T07:18:11;13.25;;;9.15;;
23474;SDS011;11910;52.086;21.066;2024-03-25T07:20:40;12.23;;;8.43;;
23474;SDS011;11910;52.086;21.066;2024-03-25T07:23:09;12.55;;;8.23;;
23474;SDS011;11910;52.086;21.066;2024-03-25T07:25:35;13.30;;;8.02;;
23474;SDS011;11910;52.086;21.066;2024-03-25T07:28:02;13.48;;;8.85;;
23474;SDS011;11910;52.086;21.066;2024-03-25T07:30:28;11.25;;;8.15;;
23474;SDS011;11910;52.086;21.066;2024-03-25T07:32:54;13.57;;;8.57;;
23474;SDS011;11910;52.086;21.066;2024-03-25T07:35:20;12.65;;;8.50;;
23474;SDS011;11910;52.086;21.066;2024-03-25T07:37:46;12.57;;;8.02;;
23474;SDS011;11910;52.086;21.066;2024-03-25T07:40:12;12.20;;;8.35;;
23474;SDS011;11910;52.086;21.066;2024-03-25T07:42:38;12.25;;;8.10;;
23474;SDS011;11910;52.086;21.066;2024-03-25T07:45:04;11.48;;;8.02;;
23474;SDS011;11910;52.086;21.066;2024-03-25T07:47:31;14.82;;;8.45;;
23474;SDS011;11910;52.086;21.066;2024-03-25T07:49:57;11.82;;;8.38;;
23474;SDS011;11910;52.086;21.066;2024-03-25T07:52:24;14.20;;;8.48;;
23474;SDS011;11910;52.086;21.066;2024-03-25T07:54:50;11.07;;;8.27;;
23474;SDS011;11910;52.086;21.066;2024-03-25T07:57:16;12.45;;;7.72;;
23474;SDS011;11910;52.086;21.066;2024-03-25T07:59:42;10.88;;;7.88;;
23474;SDS011;11910;52.086;21.066;2024-03-25T08:02:08;12.02;;;8.18;;
23474;SDS011;11910;52.086;21.066;2024-03-25T08:04:33;10.82;;;7.82;;
23474;SDS011;11910;52.086;21.066;2024-03-25T08:06:59;12.80;;;8.02;;
23474;SDS011;11910;52.086;21.066;2024-03-25T08:09:25;13.35;;;8.63;;
23474;SDS011;11910;52.086;21.066;2024-03-25T08:11:50;14.02;;;8.52;;
23474;SDS011;11910;52.086;21.066;2024-03-25T08:14:16;12.55;;;8.13;;
23474;SDS011;11910;52.086;21.066;2024-03-25T08:16:42;11.88;;;7.97;;
23474;SDS011;11910;52.086;21.066;2024-03-25T08:19:08;11.43;;;7.78;;
23474;SDS011;11910;52.086;21.066;2024-03-25T08:21:34;10.65;;;7.97;;
23474;SDS011;11910;52.086;21.066;2024-03-25T08:23:59;9.80;;;7.13;;
23474;SDS011;11910;52.086;21.066;2024-03-25T08:26:25;10.93;;;7.45;;
23474;SDS011;11910;52.086;21.066;2024-03-25T08:28:51;9.68;;;7.13;;
23474;SDS011;11910;52.086;21.066;2024-03-25T08:31:16;10.50;;;6.78;;
23474;SDS011;11910;52.086;21.066;2024-03-25T08:33:42;9.82;;;7.43;;
23474;SDS011;11910;52.086;21.066;2024-03-25T08:36:08;11.43;;;6.72;;
23474;SDS011;11910;52.086;21.066;2024-03-25T08:38:34;9.75;;;6.72;;
23474;SDS011;11910;52.086;21.066;2024-03-25T08:40:59;10.20;;;6.93;;
23474;SDS011;11910;52.086;21.066;2024-03-25T08:43:25;10.88;;;7.47;;
23474;SDS011;11910;52.086;21.066;2024-03-25T08:45:51;9.93;;;7.43;;
23474;SDS011;11910;52.086;21.066;2024-03-25T08:48:19;9.48;;;7.10;;
23474;SDS011;11910;52.086;21.066;2024-03-25T08:50:45;11.00;;;6.45;;
23474;SDS011;11910;52.086;21.066;2024-03-25T08:53:11;10.82;;;6.60;;
23474;SDS011;11910;52.086;21.066;2024-03-25T08:55:36;7.38;;;5.40;;
23474;SDS011;11910;52.086;21.066;2024-03-25T08:58:02;7.97;;;5.07;;
23474;SDS011;11910;52.086;21.066;2024-03-25T09:00:28;7.25;;;5.55;;
23474;SDS011;11910;52.086;21.066;2024-03-25T09:02:54;7.40;;;5.20;;
23474;SDS011;11910;52.086;21.066;2024-03-25T09:05:20;6.88;;;5.30;;
23474;SDS011;11910;52.086;21.066;2024-03-25T09:07:46;10.25;;;5.80;;
23474;SDS011;11910;52.086;21.066;2024-03-25T09:10:17;10.23;;;5.75;;
23474;SDS011;11910;52.086;21.066;2024-03-25T09:13:01;8.15;;;4.90;;
23474;SDS011;11910;52.086;21.066;2024-03-25T09:15:28;7.13;;;4.82;;
23474;SDS011;11910;52.086;21.066;2024-03-25T09:17:56;7.25;;;4.40;;
23474;SDS011;11910;52.086;21.066;2024-03-25T09:20:22;5.68;;;4.53;;
23474;SDS011;11910;52.086;21.066;2024-03-25T09:22:48;5.45;;;4.55;;
23474;SDS011;11910;52.086;21.066;2024-03-25T09:25:14;9.25;;;4.90;;
23474;SDS011;11910;52.086;21.066;2024-03-25T09:27:41;8.75;;;4.55;;
23474;SDS011;11910;52.086;21.066;2024-03-25T09:30:11;6.13;;;4.40;;
23474;SDS011;11910;52.086;21.066;2024-03-25T09:32:37;7.10;;;5.53;;
23474;SDS011;11910;52.086;21.066;2024-03-25T09:35:03;7.00;;;4.80;;
23474;SDS011;11910;52.086;21.066;2024-03-25T09:37:29;6.90;;;5.13;;
23474;SDS011;11910;52.086;21.066;2024-03-25T09:39:56;7.15;;;5.05;;
23474;SDS011;11910;52.086;21.066;2024-03-25T09:42:25;6.65;;;4.85;;
23474;SDS011;11910;52.086;21.066;2024-03-25T09:44:55;6.97;;;5.17;;
23474;SDS011;11910;52.086;21.066;2024-03-25T09:47:21;7.70;;;5.07;;
23474;SDS011;11910;52.086;21.066;2024-03-25T09:49:48;8.30;;;5.32;;
23474;SDS011;11910;52.086;21.066;2024-03-25T09:52:14;8.18;;;5.97;;
23474;SDS011;11910;52.086;21.066;2024-03-25T09:54:40;9.65;;;5.53;;
23474;SDS011;11910;52.086;21.066;2024-03-25T09:57:06;6.53;;;5.35;;
23474;SDS011;11910;52.086;21.066;2024-03-25T09:59:33;8.45;;;6.13;;
23474;SDS011;11910;52.086;21.066;2024-03-25T10:01:59;9.30;;;5.80;;
23474;SDS011;11910;52.086;21.066;2024-03-25T10:04:28;7.90;;;5.68;;
23474;SDS011;11910;52.086;21.066;2024-03-25T10:06:55;9.35;;;5.70;;
23474;SDS011;11910;52.086;21.066;2024-03-25T10:09:21;6.65;;;4.85;;
23474;SDS011;11910;52.086;21.066;2024-03-25T10:11:47;6.05;;;4.70;;
23474;SDS011;11910;52.086;21.066;2024-03-25T10:14:14;7.72;;;4.78;;
23474;SDS011;11910;52.086;21.066;2024-03-25T10:16:48;7.50;;;5.70;;
23474;SDS011;11910;52.086;21.066;2024-03-25T10:19:16;8.35;;;5.68;;
23474;SDS011;11910;52.086;21.066;2024-03-25T10:21:42;10.43;;;7.70;;
23474;SDS011;11910;52.086;21.066;2024-03-25T10:24:08;8.85;;;5.78;;
23474;SDS011;11910;52.086;21.066;2024-03-25T10:26:33;10.48;;;7.55;;
23474;SDS011;11910;52.086;21.066;2024-03-25T10:29:06;11.23;;;8.43;;
23474;SDS011;11910;52.086;21.066;2024-03-25T10:31:32;12.43;;;8.40;;
23474;SDS011;11910;52.086;21.066;2024-03-25T10:33:59;10.13;;;6.88;;
23474;SDS011;11910;52.086;21.066;2024-03-25T10:36:25;8.70;;;6.15;;
23474;SDS011;11910;52.086;21.066;2024-03-25T10:39:02;6.45;;;5.18;;
23474;SDS011;11910;52.086;21.066;2024-03-25T10:41:32;5.93;;;4.40;;
23474;SDS011;11910;52.086;21.066;2024-03-25T10:43:59;13.82;;;8.75;;
23474;SDS011;11910;52.086;21.066;2024-03-25T10:46:29;7.85;;;5.38;;
23474;SDS011;11910;52.086;21.066;2024-03-25T10:49:01;7.90;;;4.45;;
23474;SDS011;11910;52.086;21.066;2024-03-25T10:51:36;8.80;;;6.50;;
23474;SDS011;11910;52.086;21.066;2024-03-25T10:54:04;6.15;;;5.15;;
23474;SDS011;11910;52.086;21.066;2024-03-25T10:56:32;5.22;;;4.07;;
23474;SDS011;11910;52.086;21.066;2024-03-25T10:58:58;8.23;;;4.07;;
23474;SDS011;11910;52.086;21.066;2024-03-25T11:01:25;7.93;;;4.70;;
23474;SDS011;11910;52.086;21.066;2024-03-25T11:03:51;6.60;;;4.35;;
23474;SDS011;11910;52.086;21.066;2024-03-25T11:06:17;4.47;;;3.50;;
23474;SDS011;11910;52.086;21.066;2024-03-25T11:08:43;7.25;;;4.20;;
23474;SDS011;11910;52.086;21.066;2024-03-25T11:11:12;6.97;;;3.78;;
23474;SDS011;11910;52.086;21.066;2024-03-25T11:13:38;8.75;;;4.40;;
23474;SDS011;11910;52.086;21.066;2024-03-25T11:16:05;6.82;;;3.70;;
23474;SDS011;11910;52.086;21.066;2024-03-25T11:18:35;7.77;;;4.67;;
23474;SDS011;11910;52.086;21.066;2024-03-25T11:23:43;6.25;;;4.10;;
23474;SDS011;11910;52.086;21.066;2024-03-25T11:28:49;7.13;;;4.47;;
23474;SDS011;11910;52.086;21.066;2024-03-25T11:31:16;8.88;;;5.80;;
23474;SDS011;11910;52.086;21.066;2024-03-25T11:33:44;6.85;;;4.82;;
23474;SDS011;11910;52.086;21.066;2024-03-25T11:36:10;8.80;;;5.15;;
23474;SDS011;11910;52.086;21.066;2024-03-25T11:38:36;7.25;;;4.30;;
23474;SDS011;11910;52.086;21.066;2024-03-25T11:41:05;6.13;;;4.03;;
23474;SDS011;11910;52.086;21.066;2024-03-25T11:43:32;8.65;;;6.38;;
23474;SDS011;11910;52.086;21.066;2024-03-25T11:45:57;9.15;;;5.68;;
23474;SDS011;11910;52.086;21.066;2024-03-25T11:48:23;6.28;;;4.93;;
23474;SDS011;11910;52.086;21.066;2024-03-25T11:50:49;5.80;;;4.07;;
23474;SDS011;11910;52.086;21.066;2024-03-25T11:53:15;5.95;;;4.30;;
23474;SDS011;11910;52.086;21.066;2024-03-25T11:55:41;6.60;;;4.95;;
23474;SDS011;11910;52.086;21.066;2024-03-25T11:58:11;6.97;;;4.68;;
23474;SDS011;11910;52.086;21.066;2024-03-25T12:00:42;5.28;;;4.22;;
23474;SDS011;11910;52.086;21.066;2024-03-25T12:03:09;9.35;;;4.97;;
23474;SDS011;11910;52.086;21.066;2024-03-25T12:05:38;5.07;;;3.60;;
23474;SDS011;11910;52.086;21.066;2024-03-25T12:08:07;6.78;;;3.70;;
23474;SDS011;11910;52.086;21.066;2024-03-25T12:10:35;5.50;;;4.13;;
23474;SDS011;11910;52.086;21.066;2024-03-25T12:13:37;7.88;;;3.60;;
23474;SDS011;11910;52.086;21.066;2024-03-25T12:16:08;5.65;;;3.83;;
23474;SDS011;11910;52.086;21.066;2024-03-25T12:18:39;6.55;;;3.67;;
23474;SDS011;11910;52.086;21.066;2024-03-25T12:21:10;5.70;;;3.40;;
23474;SDS011;11910;52.086;21.066;2024-03-25T12:23:35;4.85;;;3.05;;
23474;SDS011;11910;52.086;21.066;2024-03-25T12:26:02;4.93;;;3.05;;
23474;SDS011;11910;52.086;21.066;2024-03-25T12:28:31;4.35;;;3.50;;
23474;SDS011;11910;52.086;21.066;2024-03-25T12:31:00;5.63;;;3.08;;
23474;SDS011;11910;52.086;21.066;2024-03-25T12:33:25;4.40;;;3.17;;
23474;SDS011;11910;52.086;21.066;2024-03-25T12:35:52;4.82;;;3.15;;
23474;SDS011;11910;52.086;21.066;2024-03-25T12:38:21;4.38;;;3.10;;
23474;SDS011;11910;52.086;21.066;2024-03-25T12:40:47;4.40;;;2.90;;
23474;SDS011;11910;52.086;21.066;2024-03-25T12:43:16;4.70;;;2.90;;
23474;SDS011;11910;52.086;21.066;2024-03-25T12:45:41;5.68;;;2.90;;
23474;SDS011;11910;52.086;21.066;2024-03-25T12:48:08;4.47;;;2.65;;
23474;SDS011;11910;52.086;21.066;2024-03-25T12:50:34;3.42;;;2.83;;
23474;SDS011;11910;52.086;21.066;2024-03-25T12:53:00;2.70;;;2.28;;
23474;SDS011;11910;52.086;21.066;2024-03-25T12:55:26;6.30;;;2.92;;
23474;SDS011;11910;52.086;21.066;2024-03-25T12:57:52;3.17;;;2.78;;
23474;SDS011;11910;52.086;21.066;2024-03-25T13:00:17;2.88;;;2.53;;
23474;SDS011;11910;52.086;21.066;2024-03-25T13:02:44;4.30;;;2.33;;
23474;SDS011;11910;52.086;21.066;2024-03-25T13:05:09;2.78;;;2.28;;
23474;SDS011;11910;52.086;21.066;2024-03-25T13:07:35;3.67;;;2.80;;
23474;SDS011;11910;52.086;21.066;2024-03-25T13:10:02;2.60;;;2.28;;
23474;SDS011;11910;52.086;21.066;2024-03-25T13:12:30;4.75;;;2.83;;
23474;SDS011;11910;52.086;21.066;2024-03-25T13:14:56;3.63;;;2.60;;
23474;SDS011;11910;52.086;21.066;2024-03-25T13:17:23;4.30;;;2.63;;
23474;SDS011;11910;52.086;21.066;2024-03-25T13:19:50;3.03;;;2.65;;
23474;SDS011;11910;52.086;21.066;2024-03-25T13:22:15;4.90;;;2.92;;
23474;SDS011;11910;52.086;21.066;2024-03-25T13:24:41;4.72;;;3.50;;
23474;SDS011;11910;52.086;21.066;2024-03-25T13:27:09;5.25;;;3.10;;
23474;SDS011;11910;52.086;21.066;2024-03-25T13:29:35;5.18;;;2.67;;
23474;SDS011;11910;52.086;21.066;2024-03-25T13:32:03;4.05;;;2.50;;
23474;SDS011;11910;52.086;21.066;2024-03-25T13:34:29;4.63;;;3.45;;
23474;SDS011;11910;52.086;21.066;2024-03-25T13:36:55;4.93;;;3.45;;
23474;SDS011;11910;52.086;21.066;2024-03-25T13:39:21;4.47;;;3.20;;
23474;SDS011;11910;52.086;21.066;2024-03-25T13:41:46;5.40;;;3.63;;
23474;SDS011;11910;52.086;21.066;2024-03-25T13:44:13;7.47;;;4.30;;
23474;SDS011;11910;52.086;21.066;2024-03-25T13:46:38;6.93;;;3.67;;
23474;SDS011;11910;52.086;21.066;2024-03-25T13:49:04;5.05;;;3.15;;
23474;SDS011;11910;52.086;21.066;2024-03-25T13:51:30;5.13;;;3.63;;
23474;SDS011;11910;52.086;21.066;2024-03-25T13:53:55;5.65;;;5.05;;
23474;SDS011;11910;52.086;21.066;2024-03-25T13:56:21;6.03;;;4.70;;
23474;SDS011;11910;52.086;21.066;2024-03-25T13:58:47;4.40;;;3.20;;
23474;SDS011;11910;52.086;21.066;2024-03-25T14:01:13;6.30;;;3.20;;
23474;SDS011;11910;52.086;21.066;2024-03-25T14:03:38;3.60;;;2.97;;
23474;SDS011;11910;52.086;21.066;2024-03-25T14:06:04;6.10;;;3.70;;
23474;SDS011;11910;52.086;21.066;2024-03-25T14:08:30;5.03;;;4.47;;
23474;SDS011;11910;52.086;21.066;2024-03-25T14:10:56;7.35;;;5.07;;
23474;SDS011;11910;52.086;21.066;2024-03-25T14:13:27;7.28;;;4.75;;
23474;SDS011;11910;52.086;21.066;2024-03-25T14:15:52;5.75;;;4.65;;
23474;SDS011;11910;52.086;21.066;2024-03-25T14:18:18;5.38;;;4.55;;
23474;SDS011;11910;52.086;21.066;2024-03-25T14:20:44;6.55;;;4.25;;
23474;SDS011;11910;52.086;21.066;2024-03-25T14:23:10;5.25;;;4.70;;
23474;SDS011;11910;52.086;21.066;2024-03-25T14:25:37;7.05;;;4.40;;